WEATHER/FLIGHT PLANNING

Hattiesburg Radar

 

 

 

 

Weather Links

Flight Planning Links

 

METAR

2018/11/22 10:53 KHBG 221053Z AUTO 00000KT 10SM CLR 05/03 A3030 RMK AO2 SLP260 T00500033

TAF

2018/11/22 06:48 TAF KHBG 220544Z 2206/2306 VRB04KT P6SM SCT250 FM221500 05006KT P6SM SCT100 SCT250